createdAt,value
2018-12-19T00:01:40.345Z,88.50
2018-12-19T00:04:09.632Z,88.02
2018-12-19T00:06:38.862Z,87.91
2018-12-19T00:09:08.675Z,87.81
2018-12-19T00:11:38.087Z,87.79
2018-12-19T00:14:07.545Z,88.13
2018-12-19T00:16:36.825Z,88.00
2018-12-19T00:19:06.079Z,87.95
2018-12-19T00:21:35.393Z,88.43
2018-12-19T00:24:04.845Z,87.76
2018-12-19T00:26:34.092Z,88.03
2018-12-19T00:29:04.405Z,88.24
2018-12-19T00:31:33.935Z,87.70
2018-12-19T00:34:03.990Z,88.23
2018-12-19T00:36:34.542Z,87.93
2018-12-19T00:39:09.498Z,87.94
2018-12-19T00:41:36.808Z,88.05
2018-12-19T00:44:06.171Z,88.21
2018-12-19T00:46:35.627Z,87.78
2018-12-19T00:49:04.916Z,88.30
2018-12-19T00:51:34.128Z,87.99
2018-12-19T00:54:03.369Z,88.06
2018-12-19T00:56:32.635Z,88.06
2018-12-19T00:59:02.803Z,87.63
2018-12-19T01:01:32.847Z,87.78
2018-12-19T01:04:02.135Z,87.86
2018-12-19T01:06:31.481Z,88.02
2018-12-19T01:09:01.077Z,87.87
2018-12-19T01:11:30.371Z,88.08
2018-12-19T01:14:00.794Z,88.12
2018-12-19T01:16:30.142Z,88.09
2018-12-19T01:18:59.398Z,87.70
2018-12-19T01:21:28.608Z,87.96
2018-12-19T01:23:57.809Z,87.96
2018-12-19T01:26:27.341Z,88.12
2018-12-19T01:28:56.715Z,88.18
2018-12-19T01:31:25.976Z,88.36
2018-12-19T01:33:55.255Z,88.41
2018-12-19T01:36:24.738Z,87.93
2018-12-19T01:38:54.097Z,87.79
2018-12-19T01:41:23.402Z,87.89
2018-12-19T01:43:52.701Z,88.36
2018-12-19T01:46:22.016Z,88.33
2018-12-19T01:48:51.236Z,88.42
2018-12-19T01:51:20.885Z,87.88
2018-12-19T01:53:50.308Z,88.25
2018-12-19T01:56:19.506Z,88.55
2018-12-19T01:58:48.836Z,88.09
2018-12-19T02:01:18.088Z,88.09
2018-12-19T02:03:47.783Z,88.02
2018-12-19T02:06:17.043Z,87.96
2018-12-19T02:08:46.326Z,88.64
2018-12-19T02:11:15.635Z,88.72
2018-12-19T02:13:44.878Z,88.69
2018-12-19T02:16:14.117Z,88.65
2018-12-19T02:18:43.311Z,87.99
2018-12-19T02:21:12.896Z,88.56
2018-12-19T02:23:42.106Z,88.66
2018-12-19T02:26:11.472Z,88.69
2018-12-19T02:28:41.570Z,88.04
2018-12-19T02:31:10.976Z,88.67
2018-12-19T02:33:40.174Z,88.10
2018-12-19T02:36:09.385Z,88.08
2018-12-19T02:38:38.685Z,88.50
2018-12-19T02:41:07.937Z,88.61
2018-12-19T02:43:37.148Z,88.27
2018-12-19T02:46:06.374Z,88.69
2018-12-19T02:48:36.583Z,88.33
2018-12-19T02:51:05.921Z,88.53
2018-12-19T02:53:35.192Z,88.46
2018-12-19T02:56:04.469Z,88.21
2018-12-19T02:58:33.853Z,88.81
2018-12-19T03:01:03.217Z,88.50
2018-12-19T03:03:32.502Z,88.45
2018-12-19T03:06:01.782Z,88.75
2018-12-19T03:08:31.643Z,88.89
2018-12-19T03:11:00.978Z,88.82
2018-12-19T03:13:30.809Z,88.33
2018-12-19T03:16:00.802Z,88.64
2018-12-19T03:18:30.162Z,88.67
2018-12-19T03:20:59.951Z,88.79
2018-12-19T03:23:30.204Z,88.93
2018-12-19T03:25:59.437Z,88.47
2018-12-19T03:28:28.633Z,88.71
2018-12-19T03:30:57.857Z,88.87
2018-12-19T03:33:27.730Z,88.88
2018-12-19T03:35:56.975Z,88.53
2018-12-19T03:38:26.230Z,88.76
2018-12-19T03:40:55.597Z,88.69
2018-12-19T03:43:24.836Z,88.46
2018-12-19T03:45:54.087Z,88.73
2018-12-19T03:48:28.453Z,88.74
2018-12-19T03:50:57.800Z,88.93
2018-12-19T03:53:28.007Z,88.48
2018-12-19T03:55:57.260Z,88.99
2018-12-19T03:58:26.602Z,88.77
2018-12-19T04:00:55.868Z,88.94
2018-12-19T04:03:25.179Z,88.97
2018-12-19T04:05:54.507Z,88.55
2018-12-19T04:08:23.721Z,88.78
2018-12-19T04:10:52.987Z,88.71
2018-12-19T04:13:22.268Z,88.96
2018-12-19T04:15:51.619Z,88.79
2018-12-19T04:18:20.870Z,88.92
2018-12-19T04:20:50.820Z,88.58
2018-12-19T04:23:20.101Z,88.87
2018-12-19T04:25:49.308Z,88.64
2018-12-19T04:28:18.580Z,88.87
2018-12-19T04:30:47.856Z,88.65
2018-12-19T04:33:17.133Z,88.84
2018-12-19T04:35:46.689Z,88.78
2018-12-19T04:38:16.106Z,89.06
2018-12-19T04:40:45.427Z,89.04
2018-12-19T04:43:14.695Z,88.76
2018-12-19T04:45:44.072Z,88.76
2018-12-19T04:48:13.445Z,88.74
2018-12-19T04:50:42.679Z,88.95
2018-12-19T04:53:14.541Z,88.72
2018-12-19T04:55:43.848Z,88.84
2018-12-19T04:58:13.158Z,89.08
2018-12-19T05:00:42.497Z,88.86
2018-12-19T05:03:11.880Z,88.95
2018-12-19T05:05:41.209Z,89.09
2018-12-19T05:08:10.456Z,88.82
2018-12-19T05:10:39.734Z,89.16
2018-12-19T05:13:15.347Z,88.69
2018-12-19T05:15:45.638Z,89.06
2018-12-19T05:18:14.879Z,89.23
2018-12-19T05:20:45.122Z,88.95
2018-12-19T05:23:14.436Z,88.92
2018-12-19T05:25:43.730Z,88.89
2018-12-19T05:28:12.976Z,88.81
2018-12-19T05:30:42.291Z,88.76
2018-12-19T05:33:11.499Z,88.76
2018-12-19T05:35:40.828Z,88.79
2018-12-19T05:38:10.079Z,88.75
2018-12-19T05:40:39.390Z,89.14
2018-12-19T05:43:23.349Z,88.80
2018-12-19T05:45:52.595Z,89.18
2018-12-19T05:48:21.846Z,88.90
2018-12-19T05:50:51.116Z,89.19
2018-12-19T05:53:20.343Z,88.94
2018-12-19T05:55:49.564Z,89.23
2018-12-19T05:58:18.821Z,88.79
2018-12-19T06:00:48.072Z,88.90
2018-12-19T06:03:17.344Z,88.96
2018-12-19T06:05:47.244Z,88.82
2018-12-19T06:08:16.859Z,88.80
2018-12-19T06:10:46.152Z,89.23
2018-12-19T06:13:15.461Z,88.84
2018-12-19T06:15:44.726Z,88.93
2018-12-19T06:18:13.960Z,89.31
2018-12-19T06:20:43.281Z,89.22
2018-12-19T06:23:15.211Z,89.00
2018-12-19T06:25:44.458Z,89.06
2018-12-19T06:28:13.866Z,88.80
2018-12-19T06:30:43.795Z,89.16
2018-12-19T06:33:13.045Z,88.80
2018-12-19T06:35:42.321Z,88.86
2018-12-19T06:38:11.936Z,89.40
2018-12-19T06:40:41.298Z,89.38
2018-12-19T06:43:10.555Z,89.41
2018-12-19T06:45:39.880Z,88.96
2018-12-19T06:48:09.111Z,88.94
2018-12-19T06:50:38.335Z,89.03
2018-12-19T06:53:07.555Z,88.99
2018-12-19T06:55:36.870Z,89.36
2018-12-19T06:58:06.105Z,88.92
2018-12-19T07:00:35.750Z,89.19
2018-12-19T07:03:05.034Z,88.92
2018-12-19T07:05:34.307Z,89.35
2018-12-19T07:08:03.611Z,88.93
2018-12-19T07:10:38.984Z,89.46
2018-12-19T07:13:04.747Z,88.99
2018-12-19T07:15:34.018Z,89.22
2018-12-19T07:18:03.379Z,89.04
2018-12-19T07:20:34.339Z,89.01
2018-12-19T07:23:03.572Z,89.09
2018-12-19T07:25:33.005Z,89.44
2018-12-19T07:28:02.356Z,89.59
2018-12-19T07:30:31.825Z,89.28
2018-12-19T07:33:01.118Z,89.62
2018-12-19T07:35:30.373Z,89.52
2018-12-19T07:37:59.642Z,89.01
2018-12-19T07:40:29.369Z,88.97
2018-12-19T07:42:58.649Z,88.95
2018-12-19T07:45:28.024Z,89.51
2018-12-19T07:47:57.793Z,89.17
2018-12-19T07:50:27.133Z,89.53
2018-12-19T07:52:56.432Z,89.32
2018-12-19T07:55:27.592Z,89.54
2018-12-19T07:57:56.824Z,89.58
2018-12-19T08:00:27.586Z,89.56
2018-12-19T08:02:57.089Z,89.22
2018-12-19T08:05:26.877Z,89.74
2018-12-19T08:07:57.405Z,88.98
2018-12-19T08:10:26.733Z,88.96
2018-12-19T08:12:55.954Z,89.32
2018-12-19T08:15:25.225Z,89.48
2018-12-19T08:17:54.817Z,89.38
2018-12-19T08:20:24.073Z,89.64
2018-12-19T08:22:53.435Z,89.46
2018-12-19T08:25:22.662Z,88.97
2018-12-19T08:27:51.986Z,89.24
2018-12-19T08:30:21.930Z,89.59
2018-12-19T08:32:51.279Z,89.40
2018-12-19T08:35:21.142Z,89.51
2018-12-19T08:37:50.434Z,89.66
2018-12-19T08:40:19.700Z,89.04
2018-12-19T08:42:48.952Z,89.66
2018-12-19T08:45:18.502Z,89.31
2018-12-19T08:47:48.034Z,89.41
2018-12-19T08:50:17.610Z,89.57
2018-12-19T08:52:46.839Z,89.73
2018-12-19T08:55:16.115Z,89.44
2018-12-19T08:57:46.243Z,89.41
2018-12-19T09:00:16.312Z,89.48
2018-12-19T09:02:45.598Z,89.34
2018-12-19T09:05:16.625Z,89.47
2018-12-19T09:07:46.098Z,89.54
2018-12-19T09:10:15.370Z,89.32
2018-12-19T09:12:44.800Z,89.80
2018-12-19T09:15:16.084Z,89.05
2018-12-19T09:17:46.300Z,89.03
2018-12-19T09:20:16.303Z,89.16
2018-12-19T09:22:46.751Z,89.08
2018-12-19T09:25:16.022Z,89.67
2018-12-19T09:27:45.299Z,89.51
2018-12-19T09:30:14.831Z,89.03
2018-12-19T09:32:44.180Z,89.55
2018-12-19T09:35:13.541Z,89.62
2018-12-19T09:37:42.890Z,89.10
2018-12-19T09:40:12.277Z,89.55
2018-12-19T09:42:41.532Z,89.30
2018-12-19T09:45:10.833Z,89.77
2018-12-19T09:47:40.087Z,89.10
2018-12-19T09:50:09.787Z,89.58
2018-12-19T09:52:39.122Z,89.24
2018-12-19T09:55:08.390Z,89.61
2018-12-19T09:57:37.855Z,89.56
2018-12-19T10:00:11.627Z,89.44
2018-12-19T10:02:41.580Z,89.60
2018-12-19T10:05:10.903Z,89.85
2018-12-19T10:07:40.394Z,89.80
2018-12-19T10:10:09.774Z,90.02
2018-12-19T10:12:39.005Z,89.35
2018-12-19T10:15:08.533Z,89.85
2018-12-19T10:17:40.939Z,89.01
2018-12-19T10:20:09.274Z,90.01
2018-12-19T10:22:39.272Z,89.79
2018-12-19T10:25:15.676Z,89.73
2018-12-19T10:27:44.963Z,89.87
2018-12-19T10:30:14.733Z,89.89
2018-12-19T10:32:44.107Z,89.45
2018-12-19T10:35:13.537Z,89.18
2018-12-19T10:37:42.774Z,90.09
2018-12-19T10:40:12.637Z,89.32
2018-12-19T10:42:41.882Z,89.66
2018-12-19T10:45:12.152Z,89.70
2018-12-19T10:47:42.285Z,89.54
2018-12-19T10:50:11.714Z,89.96
2018-12-19T10:52:40.981Z,89.39
2018-12-19T10:55:10.435Z,89.25
2018-12-19T10:57:39.680Z,89.21
2018-12-19T11:00:17.742Z,89.55
2018-12-19T11:02:49.093Z,89.31
2018-12-19T11:05:19.101Z,89.21
2018-12-19T11:07:48.291Z,89.33
2018-12-19T11:10:17.642Z,89.20
2018-12-19T11:12:46.899Z,90.01
2018-12-19T11:15:16.154Z,89.67
2018-12-19T11:17:45.549Z,89.08
2018-12-19T11:20:14.857Z,89.49
2018-12-19T11:22:44.678Z,89.51
2018-12-19T11:25:13.972Z,89.79
2018-12-19T11:27:43.796Z,89.18
2018-12-19T11:30:13.092Z,90.04
2018-12-19T11:32:43.211Z,90.01
2018-12-19T11:35:12.435Z,89.69
2018-12-19T11:37:42.384Z,90.05
2018-12-19T11:40:11.732Z,89.14
2018-12-19T11:42:41.168Z,89.11
2018-12-19T11:45:10.425Z,89.28
2018-12-19T11:47:39.729Z,89.17
2018-12-19T11:50:09.398Z,89.81
2018-12-19T11:52:39.369Z,89.77
2018-12-19T11:55:08.918Z,89.23
2018-12-19T11:57:38.580Z,89.47
2018-12-19T12:00:09.633Z,89.68
2018-12-19T12:02:39.287Z,89.92
2018-12-19T12:05:08.627Z,89.68
2018-12-19T12:07:38.003Z,89.20
2018-12-19T12:10:08.595Z,89.25
2018-12-19T12:12:37.924Z,89.33
2018-12-19T12:15:07.913Z,89.40
2018-12-19T12:17:37.635Z,89.98
2018-12-19T12:20:08.562Z,89.45
2018-12-19T12:22:38.050Z,89.34
2018-12-19T12:25:07.636Z,89.92
2018-12-19T12:27:36.917Z,89.28
2018-12-19T12:30:06.866Z,89.58
2018-12-19T12:32:36.053Z,89.85
2018-12-19T12:35:07.068Z,89.45
2018-12-19T12:37:36.317Z,89.45
2018-12-19T12:40:06.628Z,89.45
2018-12-19T12:42:35.972Z,89.20
2018-12-19T12:45:05.882Z,89.27
2018-12-19T12:47:35.154Z,89.37
2018-12-19T12:50:05.478Z,89.70
2018-12-19T12:52:34.917Z,89.79
2018-12-19T12:55:04.384Z,89.54
2018-12-19T12:57:34.177Z,89.96
2018-12-19T13:00:03.582Z,89.22
2018-12-19T13:02:32.813Z,89.70
2018-12-19T13:05:02.020Z,89.48
2018-12-19T13:07:31.369Z,89.95
2018-12-19T13:10:00.581Z,89.45
2018-12-19T13:12:29.816Z,89.70
2018-12-19T13:14:59.305Z,89.25
2018-12-19T13:17:29.136Z,89.47
2018-12-19T13:19:58.386Z,89.17
2018-12-19T13:22:27.636Z,89.30
2018-12-19T13:24:56.843Z,89.39
2018-12-19T13:27:26.203Z,89.61
2018-12-19T13:29:55.435Z,89.90
2018-12-19T13:32:24.708Z,89.64
2018-12-19T13:34:54.481Z,89.21
2018-12-19T13:37:24.311Z,89.98
2018-12-19T13:39:53.737Z,89.98
2018-12-19T13:42:23.080Z,89.80
2018-12-19T13:44:52.336Z,89.40
2018-12-19T13:47:21.899Z,89.68
2018-12-19T13:49:51.959Z,89.95
2018-12-19T13:52:21.221Z,89.76
2018-12-19T13:54:50.558Z,89.13
2018-12-19T13:57:20.560Z,89.93
2018-12-19T13:59:49.955Z,89.21
2018-12-19T14:02:19.456Z,89.49
2018-12-19T14:04:48.922Z,89.96
2018-12-19T14:07:18.286Z,89.19
2018-12-19T14:09:49.796Z,89.65
2018-12-19T14:12:19.035Z,89.44
2018-12-19T14:14:49.075Z,89.94
2018-12-19T14:17:19.011Z,89.99
2018-12-19T14:19:48.437Z,89.69
2018-12-19T14:22:17.686Z,89.64
2018-12-19T14:24:46.979Z,89.74
2018-12-19T14:27:17.318Z,89.52
2018-12-19T14:29:47.528Z,89.22
2018-12-19T14:32:17.071Z,89.46
2018-12-19T14:34:47.804Z,89.98
2018-12-19T14:37:17.381Z,89.90
2018-12-19T14:39:47.100Z,89.50
2018-12-19T14:42:19.248Z,89.73
2018-12-19T14:44:47.808Z,89.96
2018-12-19T14:47:17.129Z,89.71
2018-12-19T14:49:47.127Z,89.48
2018-12-19T14:52:16.512Z,89.41
2018-12-19T14:54:45.810Z,89.82
2018-12-19T14:57:15.349Z,90.03
2018-12-19T14:59:45.446Z,89.63
2018-12-19T15:02:15.699Z,89.13
2018-12-19T15:04:48.923Z,89.98
2018-12-19T15:07:21.367Z,89.50
2018-12-19T15:09:51.368Z,89.65
2018-12-19T15:12:25.768Z,89.43
2018-12-19T15:14:52.591Z,89.21
2018-12-19T15:17:21.904Z,89.69
2018-12-19T15:19:51.685Z,89.30
2018-12-19T15:22:20.961Z,89.83
2018-12-19T15:24:50.203Z,89.44
2018-12-19T15:27:19.538Z,89.66
2018-12-19T15:29:49.073Z,89.19
2018-12-19T15:32:18.497Z,89.51
2018-12-19T15:34:48.556Z,89.78
2018-12-19T15:37:18.046Z,90.00
2018-12-19T15:39:47.307Z,89.84
2018-12-19T15:42:16.512Z,89.97
2018-12-19T15:44:45.789Z,89.13
2018-12-19T15:47:15.045Z,89.17
2018-12-19T15:49:45.290Z,89.69
2018-12-19T15:52:15.072Z,89.90
2018-12-19T15:54:44.668Z,89.23
2018-12-19T15:57:14.113Z,90.03
2018-12-19T15:59:45.179Z,89.17
2018-12-19T16:02:16.019Z,89.58
2018-12-19T16:04:48.514Z,89.96
2018-12-19T16:07:18.510Z,89.39
2018-12-19T16:09:48.073Z,89.82
2018-12-19T16:12:17.365Z,89.84
2018-12-19T16:14:52.582Z,89.23
2018-12-19T16:17:21.873Z,89.21
2018-12-19T16:19:52.228Z,89.52
2018-12-19T16:22:33.821Z,90.00
2018-12-19T16:25:03.226Z,90.03
2018-12-19T16:27:32.536Z,89.17
2018-12-19T16:30:02.107Z,89.84
2018-12-19T16:32:31.356Z,89.84
2018-12-19T16:35:01.408Z,89.47
2018-12-19T16:37:30.644Z,89.23
2018-12-19T16:40:00.903Z,89.64
2018-12-19T16:42:30.276Z,89.82
2018-12-19T16:45:00.593Z,89.14
2018-12-19T16:47:29.803Z,90.03
2018-12-19T16:49:59.197Z,89.55
2018-12-19T16:52:28.729Z,89.95
2018-12-19T16:54:58.008Z,89.43
2018-12-19T16:57:27.303Z,89.57
2018-12-19T16:59:56.948Z,89.56
2018-12-19T17:02:26.452Z,89.63
2018-12-19T17:04:55.810Z,89.88
2018-12-19T17:07:25.079Z,89.27
2018-12-19T17:09:54.910Z,90.06
2018-12-19T17:12:26.109Z,89.67
2018-12-19T17:14:55.407Z,89.91
2018-12-19T17:17:24.909Z,89.92
2018-12-19T17:19:54.433Z,90.03
2018-12-19T17:22:24.194Z,90.08
2018-12-19T17:25:00.285Z,89.24
2018-12-19T17:27:29.953Z,89.76
2018-12-19T17:29:59.436Z,89.52
2018-12-19T17:32:29.290Z,89.22
2018-12-19T17:34:58.929Z,90.04
2018-12-19T17:37:29.000Z,89.74
2018-12-19T17:39:58.627Z,89.23
2018-12-19T17:42:28.222Z,90.06
2018-12-19T17:44:58.387Z,89.69
2018-12-19T17:47:28.132Z,89.77
2018-12-19T17:49:57.656Z,89.98
2018-12-19T17:52:27.729Z,89.56
2018-12-19T17:54:57.248Z,89.10
2018-12-19T17:57:27.914Z,90.13
2018-12-19T17:59:57.501Z,89.08
2018-12-19T18:02:28.121Z,89.15
2018-12-19T18:04:57.504Z,89.23
2018-12-19T18:07:27.754Z,89.25
2018-12-19T18:09:58.285Z,89.15
2018-12-19T18:12:27.832Z,89.56
2018-12-19T18:14:57.739Z,90.08
2018-12-19T18:17:27.353Z,89.56
2018-12-19T18:19:58.030Z,90.09
2018-12-19T18:22:28.394Z,89.45
2018-12-19T18:24:58.270Z,89.30
2018-12-19T18:27:28.089Z,89.78
2018-12-19T18:29:58.522Z,89.78
2018-12-19T18:32:28.566Z,90.11
2018-12-19T18:34:58.541Z,90.11
2018-12-19T18:37:30.401Z,89.32
2018-12-19T18:39:59.973Z,89.76
2018-12-19T18:42:29.708Z,89.50
2018-12-19T18:45:02.005Z,89.79
2018-12-19T18:47:31.594Z,89.76
2018-12-19T18:50:01.471Z,89.84
2018-12-19T18:52:31.242Z,90.01
2018-12-19T18:55:01.733Z,89.74
2018-12-19T18:57:31.457Z,89.73
2018-12-19T19:00:01.148Z,89.28
2018-12-19T19:02:30.867Z,90.10
2018-12-19T19:05:01.163Z,90.12
2018-12-19T19:07:33.408Z,89.32
2018-12-19T19:10:03.298Z,89.49
2018-12-19T19:12:32.941Z,89.66
2018-12-19T19:15:03.146Z,89.60
2018-12-19T19:17:32.758Z,90.06
2018-12-19T19:20:02.488Z,89.31
2018-12-19T19:22:32.122Z,89.67
2018-12-19T19:25:01.728Z,90.08
2018-12-19T19:27:33.034Z,90.13
2018-12-19T19:30:02.939Z,89.28
2018-12-19T19:32:32.590Z,89.35
2018-12-19T19:35:02.403Z,90.28
2018-12-19T19:37:32.350Z,89.36
2018-12-19T19:40:05.384Z,89.81
2018-12-19T19:42:35.171Z,89.53
2018-12-19T19:45:05.278Z,90.04
2018-12-19T19:47:34.973Z,89.64
2018-12-19T19:50:05.890Z,89.31
2018-12-19T19:52:35.531Z,89.79
2018-12-19T19:55:05.377Z,89.40
2018-12-19T19:57:35.628Z,89.83
2018-12-19T20:00:06.392Z,89.38
2018-12-19T20:02:36.016Z,89.37
2018-12-19T20:05:06.402Z,89.94
2018-12-19T20:07:37.730Z,89.59
2018-12-19T20:10:07.818Z,89.39
2018-12-19T20:12:38.456Z,90.13
2018-12-19T20:15:08.334Z,89.94
2018-12-19T20:17:37.980Z,90.10
2018-12-19T20:20:07.761Z,89.83
2018-12-19T20:22:39.203Z,89.39
2018-12-19T20:25:08.872Z,89.83
2018-12-19T20:27:40.396Z,89.87
2018-12-19T20:30:11.861Z,90.09
2018-12-19T20:32:42.329Z,89.74
2018-12-19T20:35:12.505Z,89.70
2018-12-19T20:37:43.994Z,89.56
2018-12-19T20:40:14.007Z,89.41
2018-12-19T20:42:44.089Z,90.12
2018-12-19T20:45:14.562Z,90.12
2018-12-19T20:47:45.513Z,89.31
2018-12-19T20:50:15.274Z,90.19
2018-12-19T20:52:45.498Z,89.87
2018-12-19T20:55:15.629Z,90.24
2018-12-19T20:57:45.920Z,89.33
2018-12-19T21:00:15.716Z,89.35
2018-12-19T21:02:45.717Z,90.13
2018-12-19T21:05:15.430Z,89.76
2018-12-19T21:07:46.053Z,89.71
2018-12-19T21:10:16.112Z,89.36
2018-12-19T21:12:47.404Z,90.16
2018-12-19T21:15:17.873Z,89.54
2018-12-19T21:17:53.467Z,89.89
2018-12-19T21:20:23.187Z,89.81
2018-12-19T21:22:52.941Z,89.38
2018-12-19T21:25:24.995Z,90.01
2018-12-19T21:27:54.986Z,89.42
2018-12-19T21:30:27.056Z,89.60
2018-12-19T21:32:56.778Z,89.58
2018-12-19T21:35:26.506Z,89.80
2018-12-19T21:37:56.208Z,89.52
2018-12-19T21:40:25.899Z,90.06
2018-12-19T21:42:56.797Z,90.29
2018-12-19T21:45:26.212Z,89.59
2018-12-19T21:47:55.574Z,89.26
2018-12-19T21:50:25.794Z,90.06
2018-12-19T21:52:55.169Z,90.16
2018-12-19T21:55:24.571Z,89.40
2018-12-19T21:57:53.868Z,89.69
2018-12-19T22:00:25.325Z,89.52
2018-12-19T22:02:54.862Z,89.84
2018-12-19T22:05:24.173Z,89.43
2018-12-19T22:07:56.135Z,89.52
2018-12-19T22:10:26.311Z,90.04
2018-12-19T22:12:56.159Z,89.41
2018-12-19T22:15:25.758Z,90.17
2018-12-19T22:18:00.542Z,89.62
2018-12-19T22:20:30.035Z,89.66
2018-12-19T22:22:59.557Z,89.83
2018-12-19T22:25:29.640Z,89.60
2018-12-19T22:27:58.969Z,90.17
2018-12-19T22:30:29.322Z,89.47
2018-12-19T22:32:58.723Z,89.59
2018-12-19T22:35:28.558Z,90.15
2018-12-19T22:37:58.134Z,90.04
2018-12-19T22:40:27.453Z,90.26
2018-12-19T22:42:56.670Z,90.24
2018-12-19T22:45:27.164Z,89.96
2018-12-19T22:47:56.737Z,89.91
2018-12-19T22:50:26.355Z,90.00
2018-12-19T22:52:55.621Z,89.94
2018-12-19T22:55:24.900Z,89.90
2018-12-19T22:57:54.232Z,89.81
2018-12-19T23:00:23.754Z,89.87
2018-12-19T23:02:58.333Z,90.24
2018-12-19T23:05:32.852Z,89.69
2018-12-19T23:08:02.224Z,89.97
2018-12-19T23:10:31.496Z,89.37
2018-12-19T23:13:01.830Z,89.68
2018-12-19T23:15:31.132Z,89.94
2018-12-19T23:18:33.895Z,89.81
2018-12-19T23:21:10.669Z,90.09
2018-12-19T23:23:40.796Z,89.84
2018-12-19T23:26:12.882Z,89.93
2018-12-19T23:28:42.832Z,89.51
2018-12-19T23:31:12.323Z,89.75
2018-12-19T23:33:42.087Z,90.24
2018-12-19T23:36:11.387Z,89.98
2018-12-19T23:38:41.428Z,89.72
2018-12-19T23:41:10.842Z,89.79
2018-12-19T23:43:40.195Z,89.96
2018-12-19T23:46:09.397Z,90.15
2018-12-19T23:48:39.439Z,89.52
2018-12-19T23:51:09.335Z,90.01
2018-12-19T23:53:39.325Z,89.47
2018-12-19T23:56:08.826Z,89.71
2018-12-19T23:58:38.060Z,90.09
